Terminal Aerodrome Forecast
Issued by NWS

Home | Current Version | Previous Version | Text Only | Print | Product List | Glossary On
Versions: 1 2 3 4 5 6 7 8 9 10 11 12 13 14 15
000
FTUS44 KOHX 302330
TAFCKV
TAF
KCKV 302330Z 3100/3124 20007KT P6SM -SHRA VCTS BKN035CB BKN100
     FM310200 16004KT P6SM BKN100
     FM310900 12002KT 4SM BR SCT100
      TEMPO 3109/3113 1SM BR
     FM311400 15005KT P6SM SCT100=

USA.gov is the U.S. government's official web portal to all federal, state and local government web resources and services.